Time;durP1;ratioP1;P1;durP2;ratioP2;P2;SDS_P1;SDS_P2;PMS_P1;PMS_P2;Temp;Humidity;BMP_temperature;BMP_pressure;BME280_temperature;BME280_humidity;BME280_pressure;Samples;Min_cycle;Max_cycle;Signal;HPM_P1;HPM_P2
2020/12/02 00:00:10;;;;;;;47.13;23.15;;;;;;;2.47;78.03;95701.41;5113046;28;20059;-46
2020/12/02 00:03:15;;;;;;;43.03;23.45;;;;;;;2.57;77.18;95703.16;5112593;28;20097;-50
2020/12/02 00:05:46;;;;;;;45.58;23.48;;;;;;;2.66;76.66;95708.63;5093979;28;20055;-48
2020/12/02 00:08:18;;;;;;;51.22;25.15;;;;;;;2.61;76.20;95703.38;5113087;28;20106;-48
2020/12/02 00:10:46;;;;;;;41.50;23.95;;;;;;;2.50;77.15;95713.38;5112863;28;20073;-47
2020/12/02 00:13:21;;;;;;;47.97;24.75;;;;;;;2.49;77.38;95709.91;5113239;28;20377;-48
2020/12/02 00:15:49;;;;;;;43.65;23.48;;;;;;;2.56;76.80;95713.03;5111941;28;20046;-46
2020/12/02 00:18:16;;;;;;;49.85;23.95;;;;;;;2.55;77.03;95718.66;5112652;28;20122;-47
2020/12/02 00:20:43;;;;;;;45.90;23.85;;;;;;;2.52;76.53;95712.00;5112440;28;20086;-50
2020/12/02 00:23:10;;;;;;;44.97;23.50;;;;;;;2.54;76.39;95701.06;5112256;28;20051;-47
2020/12/02 00:25:36;;;;;;;45.88;24.13;;;;;;;2.56;76.99;95720.25;5111781;28;20055;-45
2020/12/02 00:28:05;;;;;;;45.75;23.05;;;;;;;2.60;76.49;95723.13;5112430;28;20065;-45
2020/12/02 00:30:35;;;;;;;43.13;20.95;;;;;;;2.00;76.86;95660.28;5112662;28;20140;-47
2020/12/02 00:33:14;;;;;;;41.13;21.63;;;;;;;2.15;77.52;95714.59;5112154;28;20071;-45
2020/12/02 00:35:41;;;;;;;41.55;21.73;;;;;;;2.09;77.75;95711.97;5111527;28;20130;-47
2020/12/02 00:38:10;;;;;;;43.67;22.05;;;;;;;2.09;77.79;95706.63;5112246;28;20496;-48
2020/12/02 00:40:44;;;;;;;44.50;22.70;;;;;;;2.08;77.69;95712.25;5111200;28;20544;-44
2020/12/02 00:43:16;;;;;;;45.45;22.25;;;;;;;2.12;78.12;95710.63;5111001;28;20461;-44
2020/12/02 00:45:43;;;;;;;50.50;27.77;;;;;;;1.98;77.27;95712.34;5111426;28;20055;-44
2020/12/02 00:48:15;;;;;;;52.55;28.50;;;;;;;1.81;77.05;95713.56;5112338;28;20055;-48
2020/12/02 00:50:42;;;;;;;53.33;28.52;;;;;;;1.05;78.74;95691.03;5110902;28;20043;-48
2020/12/02 00:53:16;;;;;;;62.03;31.05;;;;;;;1.30;78.50;95707.88;5111018;28;20044;-47
2020/12/02 00:55:46;;;;;;;58.65;30.42;;;;;;;1.21;78.08;95710.38;5109616;28;20048;-52
2020/12/02 00:58:21;;;;;;;56.40;30.00;;;;;;;1.24;77.97;95706.34;5110815;28;20416;-49
2020/12/02 01:00:51;;;;;;;65.25;33.08;;;;;;;1.35;77.89;95697.19;5112090;28;20058;-48
2020/12/02 01:03:26;;;;;;;64.53;32.58;;;;;;;1.40;77.80;95707.84;5111944;28;20138;-47
2020/12/02 01:05:55;;;;;;;63.53;30.80;;;;;;;1.37;77.91;95705.72;5111704;28;20051;-54
2020/12/02 01:08:41;;;;;;;56.13;29.75;;;;;;;1.39;77.86;95695.56;5111784;28;20078;-53
2020/12/02 01:11:37;;;;;;;56.75;30.85;;;;;;;1.29;78.07;95698.31;5111935;28;20047;-51
2020/12/02 01:14:08;;;;;;;64.35;31.27;;;;;;;1.50;77.34;95698.94;5098718;28;20055;-47
2020/12/02 01:16:40;;;;;;;60.10;30.33;;;;;;;1.46;77.76;95704.03;5111121;28;20055;-48
2020/12/02 01:19:10;;;;;;;61.60;31.42;;;;;;;1.53;77.34;95714.38;5112007;28;20048;-48
2020/12/02 01:21:36;;;;;;;61.70;32.42;;;;;;;1.66;77.00;95710.25;5111696;28;20078;-54
2020/12/02 01:24:07;;;;;;;56.67;30.60;;;;;;;1.44;76.92;95711.53;5111923;28;20139;-48
2020/12/02 01:26:41;;;;;;;56.63;30.10;;;;;;;1.23;78.06;95699.41;5112074;28;20466;-46
2020/12/02 01:29:14;;;;;;;56.67;30.15;;;;;;;1.25;77.89;95691.94;5112606;28;20082;-47
2020/12/02 01:31:44;;;;;;;;;;;;;;;1.30;77.51;95699.88;5112505;28;20044;-49
2020/12/02 01:34:10;;;;;;;54.20;29.58;;;;;;;1.31;77.60;95696.16;5110213;28;19963;-52
2020/12/02 01:37:14;;;;;;;56.75;29.30;;;;;;;1.30;77.58;95694.56;5109432;28;20447;-49
2020/12/02 01:39:46;;;;;;;50.42;27.40;;;;;;;1.14;76.90;95694.69;5111740;28;20335;-51
2020/12/02 01:42:13;;;;;;;54.45;27.08;;;;;;;0.97;77.31;95694.25;5111616;28;20053;-49
2020/12/02 01:44:40;;;;;;;49.80;26.73;;;;;;;0.78;77.46;95680.00;5111438;28;20047;-49
2020/12/02 01:47:12;;;;;;;48.10;26.20;;;;;;;0.87;77.37;95691.66;5111005;28;20058;-50
2020/12/02 01:49:43;;;;;;;48.38;26.30;;;;;;;0.91;77.24;95700.69;5111483;28;20142;-54
2020/12/02 01:52:37;;;;;;;44.38;25.15;;;;;;;0.79;76.92;95700.25;5112025;28;20075;-46
2020/12/02 01:55:09;;;;;;;39.65;22.35;;;;;;;0.55;76.47;95692.91;5111418;28;20131;-48
2020/12/02 01:57:36;;;;;;;41.53;22.95;;;;;;;0.54;76.81;95687.88;5112056;28;20105;-49
2020/12/02 02:00:21;;;;;;;43.67;23.38;;;;;;;0.59;77.14;95685.19;5115259;28;20138;-50
2020/12/02 02:02:59;;;;;;;44.45;24.42;;;;;;;0.50;77.20;95681.50;5115072;28;20109;-51
2020/12/02 02:05:44;;;;;;;41.28;24.10;;;;;;;0.60;77.10;95686.78;5114509;28;20097;-48
2020/12/02 02:08:11;;;;;;;40.55;22.55;;;;;;;0.34;76.13;95664.81;5115172;28;20067;-43
2020/12/02 02:10:41;;;;;;;43.60;25.75;;;;;;;0.45;78.11;95685.75;5115519;28;20089;-45
2020/12/02 02:13:42;;;;;;;43.35;24.45;;;;;;;0.44;78.05;95686.06;5115167;28;20047;-47
2020/12/02 02:16:11;;;;;;;44.90;23.85;;;;;;;0.55;76.51;95690.25;5112977;28;20039;-48
2020/12/02 02:18:38;;;;;;;42.83;25.38;;;;;;;0.61;77.57;95696.34;5115402;28;20044;-57
2020/12/02 02:21:12;;;;;;;46.10;24.80;;;;;;;0.76;76.96;95698.13;5114988;28;20044;-49
2020/12/02 02:23:40;;;;;;;48.42;25.98;;;;;;;0.78;76.29;95698.66;5114924;28;20051;-46
2020/12/02 02:26:15;;;;;;;47.88;25.75;;;;;;;0.83;76.60;95696.75;5113948;28;20044;-46
2020/12/02 02:29:08;;;;;;;42.97;25.08;;;;;;;0.88;76.01;95698.59;5115092;28;20067;-47
2020/12/02 02:31:40;;;;;;;45.70;25.17;;;;;;;0.90;76.01;95696.44;5086680;27;20043;-49
2020/12/02 02:34:09;;;;;;;42.90;23.65;;;;;;;0.84;74.74;95687.69;5114499;28;20044;-47
2020/12/02 02:36:37;;;;;;;45.00;25.20;;;;;;;0.63;75.64;95687.03;5114029;28;20128;-51
2020/12/02 02:39:05;;;;;;;43.90;25.75;;;;;;;0.61;75.68;95691.03;5114408;28;20491;-53
2020/12/02 02:41:33;;;;;;;42.30;23.05;;;;;;;0.63;76.00;95681.69;5114609;28;20054;-48
2020/12/02 02:43:59;;;;;;;42.78;24.35;;;;;;;0.61;75.03;95678.50;5113358;28;20433;-49
2020/12/02 02:46:26;;;;;;;44.20;25.45;;;;;;;0.28;76.42;95660.59;5113809;28;20067;-50
2020/12/02 02:48:53;;;;;;;46.80;25.52;;;;;;;0.69;75.04;95675.28;5114150;28;20047;-48
2020/12/02 02:51:19;;;;;;;43.90;24.27;;;;;;;0.45;75.74;95674.31;5114261;28;20047;-47
2020/12/02 02:53:46;;;;;;;46.17;24.60;;;;;;;0.33;75.64;95672.00;5114013;28;20134;-47
2020/12/02 02:56:13;;;;;;;42.47;24.60;;;;;;;0.28;75.81;95672.00;5113510;28;20051;-47
2020/12/02 02:58:40;;;;;;;49.53;26.98;;;;;;;0.36;76.73;95671.47;5114612;28;20419;-47
2020/12/02 03:01:08;;;;;;;44.35;24.95;;;;;;;0.16;77.40;95672.34;5114036;28;20496;-48
2020/12/02 03:03:34;;;;;;;44.55;24.73;;;;;;;0.14;76.54;95669.16;5113828;28;20144;-46
2020/12/02 03:06:03;;;;;;;50.92;26.63;;;;;;;0.47;75.37;95661.56;5112834;28;20044;-50
2020/12/02 03:08:29;;;;;;;46.85;24.50;;;;;;;0.34;74.90;95656.84;5113355;28;20109;-51
2020/12/02 03:10:58;;;;;;;47.25;25.00;;;;;;;0.42;75.49;95669.56;5113983;28;20131;-48
2020/12/02 03:13:44;;;;;;;46.15;25.02;;;;;;;0.62;74.88;95666.81;5113613;28;20213;-50
2020/12/02 03:16:18;;;;;;;44.40;25.17;;;;;;;0.44;75.44;95662.09;5112772;28;20075;-48
2020/12/02 03:18:46;;;;;;;45.10;23.90;;;;;;;0.53;75.26;95659.66;5113468;28;20096;-49
2020/12/02 03:21:17;;;;;;;48.03;25.60;;;;;;;0.49;74.62;95654.09;5113429;28;20050;-48
2020/12/02 03:23:44;;;;;;;45.13;24.42;;;;;;;0.30;75.84;95683.19;5113231;28;20047;-48
2020/12/02 03:26:11;;;;;;;46.03;24.20;;;;;;;0.28;74.80;95645.41;5112647;28;20440;-44
2020/12/02 03:28:38;;;;;;;41.88;23.42;;;;;;;0.25;74.83;95663.78;5113383;28;20458;-45
2020/12/02 03:31:10;;;;;;;45.70;23.23;;;;;;;0.43;74.77;95660.53;5113355;28;20143;-44
2020/12/02 03:33:37;;;;;;;45.17;24.23;;;;;;;0.22;74.41;95636.66;5113462;28;20039;-47
2020/12/02 03:36:04;;;;;;;44.92;25.00;;;;;;;0.56;74.29;95670.56;5112542;28;20048;-47
2020/12/02 03:38:31;;;;;;;45.80;25.17;;;;;;;0.50;74.43;95663.66;5113041;28;20082;-48
2020/12/02 03:40:57;;;;;;;46.45;25.02;;;;;;;0.54;73.88;95671.91;5113041;28;20104;-46
2020/12/02 03:43:24;;;;;;;43.88;24.13;;;;;;;0.39;74.32;95656.78;5112855;28;20403;-45
2020/12/02 03:45:51;;;;;;;45.17;23.33;;;;;;;0.54;74.13;95667.38;5112190;28;20054;-49
2020/12/02 03:48:18;;;;;;;45.25;23.75;;;;;;;0.20;73.68;95664.63;5112808;28;20047;-46
2020/12/02 03:50:46;;;;;;;47.50;24.77;;;;;;;0.31;74.40;95668.03;5113473;28;20450;-47
2020/12/02 03:53:14;;;;;;;51.78;25.63;;;;;;;0.10;74.92;95670.78;5113166;28;20131;-48
2020/12/02 03:55:40;;;;;;;44.70;23.85;;;;;;;0.14;74.58;95674.47;5111855;28;20607;-49
2020/12/02 03:58:07;;;;;;;47.13;24.50;;;;;;;0.10;75.48;95670.78;5112656;28;20100;-48
2020/12/02 04:00:34;;;;;;;43.78;23.73;;;;;;;0.03;74.27;95667.59;5112653;28;20084;-45
2020/12/02 04:03:01;;;;;;;46.17;23.95;;;;;;;-0.05;74.88;95674.28;5112830;28;20501;-47
2020/12/02 04:05:27;;;;;;;47.78;24.75;;;;;;;0.03;75.27;95672.13;5111916;28;20040;-49
2020/12/02 04:07:54;;;;;;;48.45;25.38;;;;;;;0.16;75.10;95683.00;5112847;28;20058;-48
2020/12/02 04:10:20;;;;;;;52.70;24.35;;;;;;;-0.01;74.62;95671.84;5113461;28;20147;-45
2020/12/02 04:12:47;;;;;;;46.25;24.13;;;;;;;0.00;75.66;95662.84;5113000;28;20081;-44
2020/12/02 04:15:15;;;;;;;44.92;24.23;;;;;;;-0.01;75.29;95661.22;5112500;28;20060;-44
2020/12/02 04:17:42;;;;;;;50.20;25.85;;;;;;;-0.03;75.35;95655.41;5112524;28;20251;-46
2020/12/02 04:20:08;;;;;;;53.15;26.40;;;;;;;0.17;75.07;95657.19;5110577;28;20134;-46
2020/12/02 04:22:35;;;;;;;53.15;25.67;;;;;;;0.25;75.09;95655.81;5112622;28;20126;-45
2020/12/02 04:25:03;;;;;;;55.63;26.95;;;;;;;0.29;74.97;95648.84;5112414;28;20059;-48
2020/12/02 04:27:29;;;;;;;55.45;27.80;;;;;;;0.21;73.80;95631.63;5111953;28;20043;-47
2020/12/02 04:29:56;;;;;;;54.65;27.17;;;;;;;0.11;74.90;95632.44;5112384;28;20083;-50
2020/12/02 04:32:22;;;;;;;54.35;24.73;;;;;;;-0.08;74.54;95618.16;5112456;28;20052;-46
2020/12/02 04:34:48;;;;;;;53.58;24.42;;;;;;;0.01;75.35;95643.13;5112872;28;20051;-47
2020/12/02 04:37:15;;;;;;;58.05;26.35;;;;;;;0.03;75.81;95643.66;5111718;28;20523;-43
2020/12/02 04:39:41;;;;;;;52.20;23.73;;;;;;;-0.03;75.59;95640.22;5112311;28;20081;-44
2020/12/02 04:42:08;;;;;;;46.13;21.60;;;;;;;0.10;74.97;95630.88;5112451;28;20047;-45
2020/12/02 04:44:36;;;;;;;52.90;24.67;;;;;;;0.23;74.56;95632.94;5112417;28;20124;-45
2020/12/02 04:47:05;;;;;;;47.78;23.58;;;;;;;0.28;74.37;95636.63;5111486;28;20054;-47
2020/12/02 04:49:33;;;;;;;45.10;21.15;;;;;;;-0.16;74.46;95632.00;5112657;28;20054;-44
2020/12/02 04:52:04;;;;;;;53.85;22.75;;;;;;;-0.10;74.94;95647.72;5112370;28;20130;-45
2020/12/02 04:54:31;;;;;;;52.60;23.10;;;;;;;-0.13;75.47;95639.44;5112137;28;20058;-48
2020/12/02 04:56:57;;;;;;;46.97;21.98;;;;;;;-0.14;75.52;95635.22;5110359;28;20500;-45
2020/12/02 04:59:53;;;;;;;51.35;23.75;;;;;;;-0.10;75.80;95629.09;5112467;28;20130;-43
2020/12/02 05:02:29;;;;;;;54.35;23.80;;;;;;;-0.05;75.47;95628.28;5099280;28;20054;-44
2020/12/02 05:05:00;;;;;;;49.55;21.98;;;;;;;0.01;75.58;95629.06;5110892;28;20071;-47
2020/12/02 05:07:28;;;;;;;53.47;24.55;;;;;;;0.06;75.63;95629.81;5111476;28;20048;-45
2020/12/02 05:10:09;;;;;;;53.92;24.90;;;;;;;0.23;75.35;95630.28;5113924;28;20465;-44
2020/12/02 05:12:41;;;;;;;52.83;23.65;;;;;;;0.29;74.91;95630.22;5112416;28;20438;-46
2020/12/02 05:15:20;;;;;;;59.33;24.50;;;;;;;0.07;74.67;95619.97;5110842;28;20070;-44
2020/12/02 05:18:02;;;;;;;61.28;26.88;;;;;;;0.08;75.40;95619.69;5111913;28;20485;-49
2020/12/02 05:20:28;;;;;;;57.45;24.02;;;;;;;-0.11;74.76;95637.31;5112412;28;20048;-47
2020/12/02 05:22:55;;;;;;;57.10;25.23;;;;;;;-0.13;76.01;95626.97;5111835;28;20130;-44
2020/12/02 05:25:24;;;;;;;56.13;25.55;;;;;;;-0.01;76.32;95614.13;5110998;28;20047;-47
2020/12/02 05:28:00;;;;;;;53.25;23.25;;;;;;;-0.09;75.80;95600.63;5111764;28;20147;-43
2020/12/02 05:30:31;;;;;;;55.42;24.15;;;;;;;-0.02;75.59;95612.56;5111935;28;20079;-48
2020/12/02 05:33:19;;;;;;;59.47;24.48;;;;;;;-0.64;76.44;95615.69;5115008;28;20131;-46
2020/12/02 05:36:01;;;;;;;55.92;22.80;;;;;;;-0.78;78.34;95621.53;5115094;28;20500;-49
2020/12/02 05:38:37;;;;;;;55.20;23.33;;;;;;;-0.52;78.09;95626.78;5115579;28;20060;-48
2020/12/02 05:41:10;;;;;;;57.92;24.80;;;;;;;-0.45;77.05;95622.03;5115868;28;20321;-43
2020/12/02 05:43:45;;;;;;;66.88;27.45;;;;;;;-0.29;76.56;95631.53;5115764;28;20463;-48
2020/12/02 05:46:20;;;;;;;59.72;24.27;;;;;;;-0.22;75.87;95630.47;5114779;28;20051;-46
2020/12/02 05:48:46;;;;;;;64.53;25.55;;;;;;;-0.07;75.66;95631.19;5115601;28;20059;-48
2020/12/02 05:51:20;;;;;;;58.80;24.95;;;;;;;-0.17;75.48;95630.44;5115508;28;20122;-46
2020/12/02 05:53:55;;;;;;;53.08;24.38;;;;;;;-0.11;74.76;95634.66;5115455;28;20082;-49
2020/12/02 05:56:21;;;;;;;46.90;20.55;;;;;;;-0.31;73.27;95624.91;5114559;28;20131;-44
2020/12/02 05:58:48;;;;;;;49.47;22.63;;;;;;;-0.12;73.66;95630.44;5115087;28;20130;-44
2020/12/02 06:01:17;;;;;;;49.05;22.35;;;;;;;-0.29;74.04;95628.09;5114086;28;20062;-48
2020/12/02 06:03:50;;;;;;;46.15;20.95;;;;;;;-0.34;74.04;95622.78;5115133;28;20051;-46
2020/12/02 06:06:17;;;;;;;49.25;22.00;;;;;;;-0.04;72.63;95640.50;5115250;27;20048;-47
2020/12/02 06:08:48;;;;;;;49.33;22.80;;;;;;;-0.03;73.04;95637.56;5115617;28;20512;-49
2020/12/02 06:11:14;;;;;;;49.03;22.95;;;;;;;-0.29;72.92;95638.72;5115553;28;20099;-43
2020/12/02 06:14:24;;;;;;;51.70;23.58;;;;;;;-0.21;72.94;95640.03;5114780;27;20058;-45
2020/12/02 06:16:51;;;;;;;46.95;22.48;;;;;;;-0.10;72.46;95631.75;5082875;28;20055;-50
2020/12/02 06:19:20;;;;;;;49.90;22.25;;;;;;;0.02;72.97;95633.28;5114956;28;20131;-48
2020/12/02 06:21:57;;;;;;;50.60;24.92;;;;;;;-0.03;72.29;95637.56;5113595;28;20385;-45
2020/12/02 06:24:41;;;;;;;58.30;24.58;;;;;;;0.07;72.09;95642.06;5114872;28;20138;-45
2020/12/02 06:27:14;;;;;;;50.70;23.50;;;;;;;0.04;72.56;95645.25;5112689;28;20183;-47
2020/12/02 06:29:43;;;;;;;50.05;22.60;;;;;;;-0.14;72.31;95621.91;5114769;28;20047;-48
2020/12/02 06:32:11;;;;;;;48.90;22.10;;;;;;;-0.01;71.67;95635.41;5114472;28;20051;-50
2020/12/02 06:34:38;;;;;;;48.85;23.70;;;;;;;-0.31;72.61;95636.31;5114355;28;20047;-46
2020/12/02 06:37:10;;;;;;;53.40;25.90;;;;;;;-0.22;72.96;95643.75;5113572;28;20058;-46
2020/12/02 06:39:41;;;;;;;48.67;23.83;;;;;;;-0.40;72.90;95637.94;5114350;28;20135;-45
2020/12/02 06:42:35;;;;;;;52.50;24.00;;;;;;;-0.18;72.62;95642.13;5114910;28;20052;-45
2020/12/02 06:45:24;;;;;;;50.42;23.23;;;;;;;-0.10;71.69;95638.91;5112183;28;20116;-49
2020/12/02 06:47:50;;;;;;;48.70;24.27;;;;;;;0.03;71.75;95640.97;5112871;28;20122;-47
2020/12/02 06:50:26;;;;;;;52.40;25.55;;;;;;;0.08;71.62;95640.97;5114486;28;20047;-45
2020/12/02 06:52:56;;;;;;;49.28;24.10;;;;;;;0.14;71.10;95641.75;5114370;28;20524;-48
2020/12/02 06:55:26;;;;;;;50.00;23.90;;;;;;;0.01;70.83;95634.38;5114559;28;20055;-47
2020/12/02 06:57:58;;;;;;;54.80;26.45;;;;;;;-0.13;71.12;95626.16;5114933;28;20086;-49
2020/12/02 07:00:29;;;;;;;51.88;25.27;;;;;;;-0.10;71.44;95630.94;5113123;28;20079;-51
2020/12/02 07:03:00;;;;;;;53.13;24.77;;;;;;;0.04;71.29;95639.94;5112784;28;20043;-45
2020/12/02 07:05:29;;;;;;;52.88;23.70;;;;;;;-0.04;71.13;95638.63;5111995;28;20139;-45
2020/12/02 07:08:14;;;;;;;50.30;23.08;;;;;;;-0.34;71.64;95581.03;5114096;28;20058;-50
2020/12/02 07:10:52;;;;;;;50.03;23.95;;;;;;;-0.02;71.63;95659.63;5113796;28;20484;-46
2020/12/02 07:13:21;;;;;;;51.80;24.70;;;;;;;0.16;71.33;95634.28;5113764;28;20517;-46
2020/12/02 07:15:47;;;;;;;54.13;26.10;;;;;;;0.07;70.97;95626.09;5113075;28;20145;-51
2020/12/02 07:18:17;;;;;;;50.50;24.67;;;;;;;-0.13;72.20;95632.28;5113350;28;20052;-48
2020/12/02 07:20:47;;;;;;;51.72;25.00;;;;;;;-0.50;70.88;95614.03;5113671;28;20108;-46
2020/12/02 07:23:20;;;;;;;54.08;24.38;;;;;;;-0.28;72.24;95641.09;5113539;28;20083;-53
2020/12/02 07:25:47;;;;;;;51.50;25.63;;;;;;;-0.10;71.45;95647.72;5113398;28;20065;-46
2020/12/02 07:28:21;;;;;;;52.50;25.10;;;;;;;-0.07;71.59;95649.78;5113558;28;20485;-51
2020/12/02 07:30:48;;;;;;;53.47;25.13;;;;;;;-0.18;71.16;95639.47;5112094;28;20051;-48
2020/12/02 07:33:25;;;;;;;57.33;25.98;;;;;;;-0.03;71.57;95637.56;5113516;28;20052;-47
2020/12/02 07:36:13;;;;;;;52.03;24.80;;;;;;;-0.20;70.78;95628.31;5112958;28;20051;-49
2020/12/02 07:38:43;;;;;;;58.70;27.45;;;;;;;-0.35;72.66;95629.16;5113411;28;20040;-49
2020/12/02 07:41:18;;;;;;;54.40;25.80;;;;;;;-0.44;73.14;95633.44;5112971;28;20043;-51
2020/12/02 07:43:49;;;;;;;55.30;26.58;;;;;;;-0.25;72.60;95619.28;5113311;28;20113;-45
2020/12/02 07:46:22;;;;;;;54.30;27.50;;;;;;;-0.09;71.61;95624.56;5112495;28;20059;-49
2020/12/02 07:48:58;;;;;;;55.45;26.27;;;;;;;0.17;70.81;95615.41;5113490;28;20040;-48
2020/12/02 07:51:30;;;;;;;61.95;28.08;;;;;;;0.07;70.98;95620.78;5113535;28;20126;-47
2020/12/02 07:54:09;;;;;;;60.22;29.05;;;;;;;0.14;71.91;95620.47;5113672;28;20533;-49
2020/12/02 07:56:38;;;;;;;55.97;25.98;;;;;;;-0.01;71.49;95624.78;5110521;28;20051;-49
2020/12/02 07:59:32;;;;;;;57.83;27.25;;;;;;;-0.03;72.04;95632.25;5112010;28;20079;-45
2020/12/02 08:01:58;;;;;;;54.85;26.88;;;;;;;-0.04;70.95;95613.88;5113201;28;20046;-45
2020/12/02 08:04:34;;;;;;;56.78;27.30;;;;;;;-0.16;72.33;95613.41;5111545;28;20054;-48
2020/12/02 08:07:08;;;;;;;54.08;26.60;;;;;;;-0.18;72.53;95615.56;5110932;28;20051;-50
2020/12/02 08:09:43;;;;;;;58.85;25.92;;;;;;;-0.08;72.12;95612.84;5113065;28;20108;-48
2020/12/02 08:12:20;;;;;;;61.38;27.65;;;;;;;-0.14;71.39;95576.72;5112787;28;20043;-47
2020/12/02 08:14:58;;;;;;;58.75;27.42;;;;;;;-0.11;71.18;95598.22;5112608;28;20082;-51
2020/12/02 08:17:27;;;;;;;55.53;26.90;;;;;;;-0.22;71.01;95598.56;5112426;28;20497;-45
2020/12/02 08:19:59;;;;;;;57.53;27.67;;;;;;;-0.18;71.98;95581.78;5112648;28;20044;-48
2020/12/02 08:22:47;;;;;;;53.03;25.37;;;;;;;0.14;71.34;95601.84;5111519;28;20044;-48
2020/12/02 08:25:26;;;;;;;60.17;26.90;;;;;;;0.37;70.69;95603.06;5112480;28;20645;-47
2020/12/02 08:28:08;;;;;;;56.80;25.15;;;;;;;0.35;71.28;95592.69;5112830;28;20329;-45
2020/12/02 08:30:34;;;;;;;59.65;26.13;;;;;;;0.38;70.95;95583.34;5111415;28;20055;-46
2020/12/02 08:33:08;;;;;;;62.08;28.48;;;;;;;0.37;70.49;95579.91;5094186;28;20432;-44
2020/12/02 08:35:37;;;;;;;51.28;23.08;;;;;;;0.01;69.81;95576.66;5110603;28;20120;-47
2020/12/02 08:38:05;;;;;;;46.40;22.17;;;;;;;-0.08;70.93;95576.41;5110772;28;20440;-48
2020/12/02 08:40:55;;;;;;;41.53;20.65;;;;;;;-0.06;70.44;95589.44;5112356;28;20466;-45
2020/12/02 08:43:47;;;;;;;42.83;20.30;;;;;;;0.08;69.66;95584.31;5111953;28;20051;-47
2020/12/02 08:46:26;;;;;;;42.88;21.00;;;;;;;0.28;68.88;95594.06;5112043;28;20059;-50
2020/12/02 08:48:59;;;;;;;43.38;20.65;;;;;;;0.22;69.55;95602.06;5112395;28;20048;-51
2020/12/02 08:51:26;;;;;;;;;;;;;;;0.34;68.58;95592.97;5112821;28;20522;-50
2020/12/02 08:53:53;;;;;;;41.90;19.13;;;;;;;0.19;69.18;95594.63;5112116;28;19920;-46
2020/12/02 08:56:33;;;;;;;42.22;19.40;;;;;;;0.27;69.33;95598.59;5111897;28;20070;-47
2020/12/02 08:59:06;;;;;;;45.33;21.10;;;;;;;0.26;68.89;95590.88;5111111;28;20053;-47
2020/12/02 09:01:32;;;;;;;47.28;22.02;;;;;;;0.16;69.00;95587.22;5112931;28;20513;-47
2020/12/02 09:03:59;;;;;;;44.63;21.80;;;;;;;0.18;70.54;95593.03;5111475;28;20496;-47
2020/12/02 09:06:26;;;;;;;44.25;21.40;;;;;;;-0.35;71.52;95583.97;5111819;28;20051;-46
2020/12/02 09:08:53;;;;;;;43.65;20.55;;;;;;;-0.42;71.91;95586.94;5117413;28;20055;-44
2020/12/02 09:11:24;;;;;;;47.47;22.35;;;;;;;-0.37;72.47;95584.25;5117458;28;20301;-47
2020/12/02 09:13:51;;;;;;;47.53;21.90;;;;;;;-0.34;71.87;95583.69;5117613;28;20134;-48
2020/12/02 09:16:23;;;;;;;46.85;21.50;;;;;;;-0.33;72.11;95576.50;5097999;28;20054;-46
2020/12/02 09:18:51;;;;;;;43.88;20.88;;;;;;;-0.11;71.07;95573.50;5115161;28;20070;-46
2020/12/02 09:21:19;;;;;;;47.58;23.63;;;;;;;0.16;69.25;95570.44;5115750;28;20055;-45
2020/12/02 09:23:45;;;;;;;44.15;21.88;;;;;;;0.31;69.37;95566.91;5098441;28;20147;-50
2020/12/02 09:26:15;;;;;;;42.72;20.40;;;;;;;0.25;69.54;95574.13;5115426;28;20122;-47
2020/12/02 09:28:42;;;;;;;39.15;20.33;;;;;;;0.00;70.40;95577.72;5116768;28;20547;-45
2020/12/02 09:31:09;;;;;;;42.63;20.83;;;;;;;-0.06;70.38;95568.19;5116205;28;20043;-49
2020/12/02 09:33:35;;;;;;;44.67;21.73;;;;;;;-0.02;70.52;95577.19;5115756;28;20055;-47
2020/12/02 09:36:02;;;;;;;40.92;19.95;;;;;;;-0.04;70.80;95566.03;5115731;28;20089;-50
2020/12/02 09:38:28;;;;;;;42.45;19.85;;;;;;;0.03;69.94;95571.84;5116201;28;20465;-46
2020/12/02 09:41:12;;;;;;;41.10;21.30;;;;;;;0.20;69.54;95569.63;5115087;28;20044;-49
2020/12/02 09:44:09;;;;;;;41.97;19.38;;;;;;;0.12;69.89;95572.06;5116320;28;20462;-45
2020/12/02 09:46:37;;;;;;;42.90;19.52;;;;;;;-0.04;69.82;95563.38;5114993;28;20419;-45
2020/12/02 09:49:05;;;;;;;38.75;19.45;;;;;;;-0.05;69.74;95551.16;5115794;28;20082;-54
2020/12/02 09:51:32;;;;;;;40.58;20.52;;;;;;;0.24;69.05;95561.88;5114119;28;20504;-54
2020/12/02 09:53:59;;;;;;;45.80;21.20;;;;;;;0.35;68.54;95541.31;5114372;28;20052;-46
2020/12/02 09:56:28;;;;;;;45.92;20.73;;;;;;;0.38;67.50;95548.75;5114406;28;20075;-47
2020/12/02 09:58:58;;;;;;;42.78;20.67;;;;;;;0.42;68.41;95547.94;5114515;28;20129;-50
2020/12/02 10:01:41;;;;;;;41.17;19.80;;;;;;;0.35;68.08;95530.69;5115056;28;20047;-45
2020/12/02 10:04:17;;;;;;;37.95;18.70;;;;;;;0.51;68.17;95536.69;5115455;28;20058;-47
2020/12/02 10:07:07;;;;;;;40.92;20.55;;;;;;;0.43;67.58;95527.44;5114187;28;20082;-51
2020/12/02 10:09:58;;;;;;;36.05;18.48;;;;;;;0.54;66.74;95547.56;5115003;28;20080;-50
2020/12/02 10:12:39;;;;;;;35.10;18.85;;;;;;;0.38;66.65;95536.25;5114996;28;20115;-51
2020/12/02 10:15:15;;;;;;;36.92;17.67;;;;;;;0.12;67.78;95526.84;5114795;28;20097;-52
2020/12/02 10:18:40;;;;;;;34.35;17.20;;;;;;;0.06;68.14;95520.75;5114311;28;20036;-47
2020/12/02 10:21:18;;;;;;;;;;;;;;;0.28;68.02;95524.88;5052281;28;20053;-51
2020/12/02 10:23:52;;;;;;;44.65;20.80;;;;;;;0.25;68.75;95522.78;5051868;28;19928;-48
2020/12/02 10:26:50;;;;;;;47.22;22.02;;;;;;;0.07;68.94;95509.06;5098233;28;20517;-45
2020/12/02 10:29:32;;;;;;;44.33;21.40;;;;;;;0.18;69.29;95512.44;5114476;28;20128;-47
2020/12/02 10:31:58;;;;;;;42.15;21.77;;;;;;;0.11;68.12;95499.44;5113373;28;20144;-49
2020/12/02 10:34:30;;;;;;;41.10;20.73;;;;;;;0.10;67.85;95502.38;5133225;22;20134;-45
2020/12/02 10:37:02;;;;;;;43.33;21.88;;;;;;;0.13;68.66;95505.31;5114000;28;20056;-53
2020/12/02 10:39:32;;;;;;;40.22;19.92;;;;;;;0.18;68.94;95507.91;5114119;28;20050;-47
2020/12/02 10:42:23;;;;;;;43.15;21.48;;;;;;;0.06;69.13;95504.78;5114362;28;20084;-45
2020/12/02 10:45:02;;;;;;;43.47;20.60;;;;;;;0.06;68.23;95506.66;5112677;28;20051;-54
2020/12/02 10:48:07;;;;;;;44.17;21.23;;;;;;;-0.03;68.86;95499.28;5113228;28;20067;-45
2020/12/02 10:50:36;;;;;;;44.58;20.83;;;;;;;0.06;69.52;95483.50;5114144;28;20116;-52
2020/12/02 10:53:15;;;;;;;42.55;20.67;;;;;;;-0.24;70.21;95487.94;5113701;28;20054;-53
2020/12/02 10:55:42;;;;;;;44.63;20.92;;;;;;;-0.10;70.29;95487.34;5111807;28;20128;-49
2020/12/02 10:58:14;;;;;;;44.95;22.15;;;;;;;-0.13;69.73;95440.03;5113711;28;20106;-44
2020/12/02 11:00:40;;;;;;;41.17;20.52;;;;;;;0.42;67.60;95492.06;5113428;28;20040;-46
2020/12/02 11:03:11;;;;;;;37.40;19.52;;;;;;;0.17;68.55;95477.06;5113612;28;20457;-51
2020/12/02 11:05:38;;;;;;;37.78;18.88;;;;;;;0.15;67.55;95451.81;5113250;27;20508;-53
2020/12/02 11:08:15;;;;;;;35.75;18.83;;;;;;;0.16;67.67;95459.53;5113500;28;20051;-43
2020/12/02 11:10:51;;;;;;;34.63;17.13;;;;;;;0.20;68.99;95467.75;5114261;28;20067;-46
2020/12/02 11:13:40;;;;;;;37.95;18.35;;;;;;;0.25;69.20;95456.25;5112646;28;20047;-49
2020/12/02 11:16:13;;;;;;;39.88;20.58;;;;;;;0.30;68.65;95475.66;5111962;28;20462;-44
2020/12/02 11:18:55;;;;;;;40.35;20.55;;;;;;;0.30;68.49;95464.22;5113602;28;20040;-44
2020/12/02 11:21:56;;;;;;;40.85;20.05;;;;;;;0.21;67.73;95454.16;5113208;28;20108;-44
2020/12/02 11:24:40;;;;;;;45.53;21.10;;;;;;;0.15;70.19;95447.28;5113143;28;20131;-45
2020/12/02 11:27:08;;;;;;;41.55;20.83;;;;;;;-0.21;69.43;95430.78;5112884;28;20069;-45
2020/12/02 11:29:34;;;;;;;38.28;18.95;;;;;;;-0.17;68.93;95437.13;5112943;28;20474;-47
2020/12/02 11:32:24;;;;;;;44.33;21.15;;;;;;;-0.09;70.51;95441.09;5112871;28;20102;-45
2020/12/02 11:35:05;;;;;;;47.75;22.75;;;;;;;-0.36;70.25;95404.28;5112760;28;20052;-49
2020/12/02 11:37:45;;;;;;;42.08;19.98;;;;;;;-0.01;69.74;95427.19;5112480;28;20489;-44
2020/12/02 11:40:16;;;;;;;36.33;19.55;;;;;;;-0.28;69.77;95423.13;5112827;28;20063;-45
2020/12/02 11:42:51;;;;;;;38.67;19.42;;;;;;;-0.22;69.43;95415.13;5112999;28;20055;-50
2020/12/02 11:45:51;;;;;;;38.30;19.77;;;;;;;-0.32;69.50;95416.75;5112394;28;20083;-47
2020/12/02 11:48:26;;;;;;;39.22;19.60;;;;;;;-0.37;70.42;95411.47;5079597;28;20107;-45
2020/12/02 11:51:29;;;;;;;39.75;20.73;;;;;;;-0.20;69.13;95412.97;5112980;28;20207;-50